sensor_id;sensor_type;location;lat;lon;timestamp;P1;durP1;ratioP1;P2;durP2;ratioP2
26578;SDS011;14227;47.674;19.320;2023-07-09T00:01:37;33.47;;;22.10;;
26578;SDS011;14227;47.674;19.320;2023-07-09T00:04:03;34.30;;;23.67;;
26578;SDS011;14227;47.674;19.320;2023-07-09T00:09:50;46.55;;;27.90;;
26578;SDS011;14227;47.674;19.320;2023-07-09T00:12:17;41.25;;;25.55;;
26578;SDS011;14227;47.674;19.320;2023-07-09T00:14:43;37.70;;;23.48;;
26578;SDS011;14227;47.674;19.320;2023-07-09T00:17:18;31.95;;;18.85;;
26578;SDS011;14227;47.674;19.320;2023-07-09T00:19:50;37.00;;;19.95;;
26578;SDS011;14227;47.674;19.320;2023-07-09T00:22:17;40.88;;;23.17;;
26578;SDS011;14227;47.674;19.320;2023-07-09T00:24:47;40.83;;;21.27;;
26578;SDS011;14227;47.674;19.320;2023-07-09T00:27:16;46.20;;;23.15;;
26578;SDS011;14227;47.674;19.320;2023-07-09T00:29:44;23.27;;;16.67;;
26578;SDS011;14227;47.674;19.320;2023-07-09T00:32:19;25.73;;;17.58;;
26578;SDS011;14227;47.674;19.320;2023-07-09T00:34:49;26.33;;;16.77;;
26578;SDS011;14227;47.674;19.320;2023-07-09T00:37:19;24.50;;;15.80;;
26578;SDS011;14227;47.674;19.320;2023-07-09T00:39:47;32.83;;;19.10;;
26578;SDS011;14227;47.674;19.320;2023-07-09T00:42:20;34.28;;;19.77;;
26578;SDS011;14227;47.674;19.320;2023-07-09T00:44:52;46.78;;;25.73;;
26578;SDS011;14227;47.674;19.320;2023-07-09T00:50:10;42.80;;;25.77;;
26578;SDS011;14227;47.674;19.320;2023-07-09T00:52:51;41.75;;;25.33;;
26578;SDS011;14227;47.674;19.320;2023-07-09T00:55:20;37.65;;;23.92;;
26578;SDS011;14227;47.674;19.320;2023-07-09T00:57:49;42.03;;;24.67;;
26578;SDS011;14227;47.674;19.320;2023-07-09T01:00:22;34.00;;;20.65;;
26578;SDS011;14227;47.674;19.320;2023-07-09T01:03:34;30.95;;;19.23;;
26578;SDS011;14227;47.674;19.320;2023-07-09T01:06:00;26.77;;;18.10;;
26578;SDS011;14227;47.674;19.320;2023-07-09T01:08:27;40.78;;;23.02;;
26578;SDS011;14227;47.674;19.320;2023-07-09T01:10:57;33.03;;;21.42;;
26578;SDS011;14227;47.674;19.320;2023-07-09T01:13:24;27.05;;;18.13;;
26578;SDS011;14227;47.674;19.320;2023-07-09T01:15:52;23.42;;;15.93;;
26578;SDS011;14227;47.674;19.320;2023-07-09T01:18:19;18.40;;;13.35;;
26578;SDS011;14227;47.674;19.320;2023-07-09T01:20:46;24.38;;;17.25;;
26578;SDS011;14227;47.674;19.320;2023-07-09T01:23:12;24.25;;;16.58;;
26578;SDS011;14227;47.674;19.320;2023-07-09T01:25:40;25.67;;;16.67;;
26578;SDS011;14227;47.674;19.320;2023-07-09T01:28:17;40.90;;;25.73;;
26578;SDS011;14227;47.674;19.320;2023-07-09T01:30:43;39.22;;;26.15;;
26578;SDS011;14227;47.674;19.320;2023-07-09T01:33:09;26.92;;;19.38;;
26578;SDS011;14227;47.674;19.320;2023-07-09T01:35:36;43.67;;;26.98;;
26578;SDS011;14227;47.674;19.320;2023-07-09T01:38:06;22.02;;;17.25;;
26578;SDS011;14227;47.674;19.320;2023-07-09T01:40:32;34.90;;;21.05;;
26578;SDS011;14227;47.674;19.320;2023-07-09T01:42:59;34.22;;;22.55;;
26578;SDS011;14227;47.674;19.320;2023-07-09T01:45:26;30.20;;;20.13;;
26578;SDS011;14227;47.674;19.320;2023-07-09T01:47:53;42.60;;;25.10;;
26578;SDS011;14227;47.674;19.320;2023-07-09T01:50:20;34.35;;;23.05;;
26578;SDS011;14227;47.674;19.320;2023-07-09T01:52:46;50.28;;;27.67;;
26578;SDS011;14227;47.674;19.320;2023-07-09T01:55:14;23.27;;;17.02;;
26578;SDS011;14227;47.674;19.320;2023-07-09T01:57:42;28.88;;;18.23;;
26578;SDS011;14227;47.674;19.320;2023-07-09T02:00:09;36.80;;;22.08;;
26578;SDS011;14227;47.674;19.320;2023-07-09T02:02:38;32.60;;;21.48;;
26578;SDS011;14227;47.674;19.320;2023-07-09T02:05:08;29.15;;;19.70;;
26578;SDS011;14227;47.674;19.320;2023-07-09T02:07:34;39.25;;;21.20;;
26578;SDS011;14227;47.674;19.320;2023-07-09T02:10:01;40.17;;;23.55;;
26578;SDS011;14227;47.674;19.320;2023-07-09T02:12:36;31.55;;;20.63;;
26578;SDS011;14227;47.674;19.320;2023-07-09T02:15:02;28.40;;;18.98;;
26578;SDS011;14227;47.674;19.320;2023-07-09T02:17:28;33.17;;;21.80;;
26578;SDS011;14227;47.674;19.320;2023-07-09T02:19:53;22.35;;;14.82;;
26578;SDS011;14227;47.674;19.320;2023-07-09T02:22:19;38.65;;;23.48;;
26578;SDS011;14227;47.674;19.320;2023-07-09T02:24:45;42.10;;;24.25;;
26578;SDS011;14227;47.674;19.320;2023-07-09T02:27:12;34.72;;;19.70;;
26578;SDS011;14227;47.674;19.320;2023-07-09T02:29:40;51.20;;;26.80;;
26578;SDS011;14227;47.674;19.320;2023-07-09T02:32:06;48.17;;;29.55;;
26578;SDS011;14227;47.674;19.320;2023-07-09T02:34:32;52.97;;;31.30;;
26578;SDS011;14227;47.674;19.320;2023-07-09T02:37:00;58.88;;;32.10;;
26578;SDS011;14227;47.674;19.320;2023-07-09T02:39:26;35.03;;;22.38;;
26578;SDS011;14227;47.674;19.320;2023-07-09T02:41:52;54.85;;;30.38;;
26578;SDS011;14227;47.674;19.320;2023-07-09T02:44:18;39.33;;;24.08;;
26578;SDS011;14227;47.674;19.320;2023-07-09T02:46:44;40.05;;;25.05;;
26578;SDS011;14227;47.674;19.320;2023-07-09T02:49:11;39.83;;;25.88;;
26578;SDS011;14227;47.674;19.320;2023-07-09T02:51:38;40.70;;;25.15;;
26578;SDS011;14227;47.674;19.320;2023-07-09T02:54:04;54.67;;;28.45;;
26578;SDS011;14227;47.674;19.320;2023-07-09T02:56:31;41.25;;;26.35;;
26578;SDS011;14227;47.674;19.320;2023-07-09T02:58:57;40.70;;;26.05;;
26578;SDS011;14227;47.674;19.320;2023-07-09T03:01:23;27.08;;;18.42;;
26578;SDS011;14227;47.674;19.320;2023-07-09T03:03:52;47.65;;;25.80;;
26578;SDS011;14227;47.674;19.320;2023-07-09T03:06:24;38.67;;;21.58;;
26578;SDS011;14227;47.674;19.320;2023-07-09T03:08:52;34.95;;;21.10;;
26578;SDS011;14227;47.674;19.320;2023-07-09T03:11:19;25.20;;;15.50;;
26578;SDS011;14227;47.674;19.320;2023-07-09T03:13:45;26.88;;;18.95;;
26578;SDS011;14227;47.674;19.320;2023-07-09T03:16:12;47.70;;;29.13;;
26578;SDS011;14227;47.674;19.320;2023-07-09T03:18:39;61.20;;;34.38;;
26578;SDS011;14227;47.674;19.320;2023-07-09T03:21:04;49.38;;;29.98;;
26578;SDS011;14227;47.674;19.320;2023-07-09T03:23:30;40.08;;;25.20;;
26578;SDS011;14227;47.674;19.320;2023-07-09T03:25:56;21.73;;;17.05;;
26578;SDS011;14227;47.674;19.320;2023-07-09T03:28:22;36.50;;;24.08;;
26578;SDS011;14227;47.674;19.320;2023-07-09T03:30:48;33.13;;;21.75;;
26578;SDS011;14227;47.674;19.320;2023-07-09T03:33:15;42.55;;;24.50;;
26578;SDS011;14227;47.674;19.320;2023-07-09T03:35:42;41.67;;;25.92;;
26578;SDS011;14227;47.674;19.320;2023-07-09T03:38:09;41.38;;;25.65;;
26578;SDS011;14227;47.674;19.320;2023-07-09T03:40:36;59.55;;;26.27;;
26578;SDS011;14227;47.674;19.320;2023-07-09T03:43:03;49.13;;;29.33;;
26578;SDS011;14227;47.674;19.320;2023-07-09T03:45:29;39.35;;;25.25;;
26578;SDS011;14227;47.674;19.320;2023-07-09T03:47:55;31.75;;;23.60;;
26578;SDS011;14227;47.674;19.320;2023-07-09T03:50:21;37.47;;;23.95;;
26578;SDS011;14227;47.674;19.320;2023-07-09T03:52:47;26.13;;;18.58;;
26578;SDS011;14227;47.674;19.320;2023-07-09T03:55:13;37.92;;;26.00;;
26578;SDS011;14227;47.674;19.320;2023-07-09T03:57:39;46.17;;;28.02;;
26578;SDS011;14227;47.674;19.320;2023-07-09T04:00:05;30.02;;;20.00;;
26578;SDS011;14227;47.674;19.320;2023-07-09T04:02:41;40.55;;;21.75;;
26578;SDS011;14227;47.674;19.320;2023-07-09T04:05:08;30.02;;;22.13;;
26578;SDS011;14227;47.674;19.320;2023-07-09T04:07:34;43.15;;;29.05;;
26578;SDS011;14227;47.674;19.320;2023-07-09T04:10:00;38.78;;;27.90;;
26578;SDS011;14227;47.674;19.320;2023-07-09T04:12:26;34.97;;;22.95;;
26578;SDS011;14227;47.674;19.320;2023-07-09T04:14:52;24.88;;;20.40;;
26578;SDS011;14227;47.674;19.320;2023-07-09T04:17:18;25.05;;;17.85;;
26578;SDS011;14227;47.674;19.320;2023-07-09T04:19:44;18.65;;;15.68;;
26578;SDS011;14227;47.674;19.320;2023-07-09T04:22:13;29.38;;;22.02;;
26578;SDS011;14227;47.674;19.320;2023-07-09T04:24:38;36.70;;;27.00;;
26578;SDS011;14227;47.674;19.320;2023-07-09T04:27:04;26.15;;;20.45;;
26578;SDS011;14227;47.674;19.320;2023-07-09T04:29:32;31.58;;;24.23;;
26578;SDS011;14227;47.674;19.320;2023-07-09T04:32:03;31.73;;;23.77;;
26578;SDS011;14227;47.674;19.320;2023-07-09T04:34:36;22.92;;;14.25;;
26578;SDS011;14227;47.674;19.320;2023-07-09T04:37:03;22.10;;;18.20;;
26578;SDS011;14227;47.674;19.320;2023-07-09T04:39:30;30.52;;;21.40;;
26578;SDS011;14227;47.674;19.320;2023-07-09T04:41:56;24.95;;;18.90;;
26578;SDS011;14227;47.674;19.320;2023-07-09T04:44:22;21.30;;;16.92;;
26578;SDS011;14227;47.674;19.320;2023-07-09T04:46:48;29.90;;;19.90;;
26578;SDS011;14227;47.674;19.320;2023-07-09T04:49:14;19.50;;;15.05;;
26578;SDS011;14227;47.674;19.320;2023-07-09T04:51:40;15.93;;;13.63;;
26578;SDS011;14227;47.674;19.320;2023-07-09T04:54:05;22.88;;;15.88;;
26578;SDS011;14227;47.674;19.320;2023-07-09T04:56:31;21.35;;;16.02;;
26578;SDS011;14227;47.674;19.320;2023-07-09T04:58:57;21.25;;;14.07;;
26578;SDS011;14227;47.674;19.320;2023-07-09T05:01:25;23.95;;;15.32;;
26578;SDS011;14227;47.674;19.320;2023-07-09T05:03:50;19.15;;;14.40;;
26578;SDS011;14227;47.674;19.320;2023-07-09T05:06:16;18.40;;;13.85;;
26578;SDS011;14227;47.674;19.320;2023-07-09T05:08:42;19.02;;;14.68;;
26578;SDS011;14227;47.674;19.320;2023-07-09T05:11:08;28.98;;;17.35;;
26578;SDS011;14227;47.674;19.320;2023-07-09T05:13:35;24.27;;;18.25;;
26578;SDS011;14227;47.674;19.320;2023-07-09T05:16:01;22.00;;;14.88;;
26578;SDS011;14227;47.674;19.320;2023-07-09T05:18:27;19.75;;;14.25;;
26578;SDS011;14227;47.674;19.320;2023-07-09T05:20:54;16.50;;;14.30;;
26578;SDS011;14227;47.674;19.320;2023-07-09T05:23:20;20.00;;;14.32;;
26578;SDS011;14227;47.674;19.320;2023-07-09T05:25:46;20.42;;;12.50;;
26578;SDS011;14227;47.674;19.320;2023-07-09T05:28:12;20.55;;;13.85;;
26578;SDS011;14227;47.674;19.320;2023-07-09T05:30:40;18.77;;;13.15;;
26578;SDS011;14227;47.674;19.320;2023-07-09T05:33:07;20.05;;;12.95;;
26578;SDS011;14227;47.674;19.320;2023-07-09T05:35:33;18.70;;;13.63;;
26578;SDS011;14227;47.674;19.320;2023-07-09T05:37:58;17.30;;;13.70;;
26578;SDS011;14227;47.674;19.320;2023-07-09T05:40:24;24.40;;;15.55;;
26578;SDS011;14227;47.674;19.320;2023-07-09T05:42:50;19.50;;;13.27;;
26578;SDS011;14227;47.674;19.320;2023-07-09T05:45:15;16.33;;;9.65;;
26578;SDS011;14227;47.674;19.320;2023-07-09T05:47:44;11.77;;;9.60;;
26578;SDS011;14227;47.674;19.320;2023-07-09T05:50:10;10.45;;;7.53;;
26578;SDS011;14227;47.674;19.320;2023-07-09T05:52:35;9.75;;;7.25;;
26578;SDS011;14227;47.674;19.320;2023-07-09T05:55:01;8.48;;;6.13;;
26578;SDS011;14227;47.674;19.320;2023-07-09T05:57:27;11.38;;;6.88;;
26578;SDS011;14227;47.674;19.320;2023-07-09T05:59:53;9.73;;;5.45;;
26578;SDS011;14227;47.674;19.320;2023-07-09T06:02:19;12.63;;;6.88;;
26578;SDS011;14227;47.674;19.320;2023-07-09T06:04:46;8.45;;;5.10;;
26578;SDS011;14227;47.674;19.320;2023-07-09T06:07:15;5.63;;;4.75;;
26578;SDS011;14227;47.674;19.320;2023-07-09T06:09:41;9.43;;;5.55;;
26578;SDS011;14227;47.674;19.320;2023-07-09T06:12:07;8.05;;;5.05;;
26578;SDS011;14227;47.674;19.320;2023-07-09T06:14:34;7.88;;;4.90;;
26578;SDS011;14227;47.674;19.320;2023-07-09T06:17:00;7.65;;;4.53;;
26578;SDS011;14227;47.674;19.320;2023-07-09T06:19:26;9.52;;;4.90;;
26578;SDS011;14227;47.674;19.320;2023-07-09T06:21:52;6.35;;;4.60;;
26578;SDS011;14227;47.674;19.320;2023-07-09T06:24:21;6.35;;;4.32;;
26578;SDS011;14227;47.674;19.320;2023-07-09T06:26:47;7.63;;;4.05;;
26578;SDS011;14227;47.674;19.320;2023-07-09T06:29:13;7.85;;;4.35;;
26578;SDS011;14227;47.674;19.320;2023-07-09T06:31:41;6.85;;;3.47;;
26578;SDS011;14227;47.674;19.320;2023-07-09T06:34:11;8.75;;;4.20;;
26578;SDS011;14227;47.674;19.320;2023-07-09T06:36:38;4.90;;;3.75;;
26578;SDS011;14227;47.674;19.320;2023-07-09T06:39:04;8.32;;;3.72;;
26578;SDS011;14227;47.674;19.320;2023-07-09T06:41:30;5.10;;;3.20;;
26578;SDS011;14227;47.674;19.320;2023-07-09T06:43:57;8.77;;;3.40;;
26578;SDS011;14227;47.674;19.320;2023-07-09T06:46:26;8.95;;;3.65;;
26578;SDS011;14227;47.674;19.320;2023-07-09T06:48:52;6.68;;;3.75;;
26578;SDS011;14227;47.674;19.320;2023-07-09T06:53:51;7.70;;;3.50;;
26578;SDS011;14227;47.674;19.320;2023-07-09T06:56:17;7.93;;;3.78;;
26578;SDS011;14227;47.674;19.320;2023-07-09T06:58:43;6.65;;;3.58;;
26578;SDS011;14227;47.674;19.320;2023-07-09T07:01:11;10.60;;;3.53;;
26578;SDS011;14227;47.674;19.320;2023-07-09T07:03:39;6.13;;;3.70;;
26578;SDS011;14227;47.674;19.320;2023-07-09T07:06:05;10.82;;;3.50;;
26578;SDS011;14227;47.674;19.320;2023-07-09T07:08:32;5.40;;;3.30;;
26578;SDS011;14227;47.674;19.320;2023-07-09T07:10:58;6.90;;;3.10;;
26578;SDS011;14227;47.674;19.320;2023-07-09T07:13:29;7.53;;;2.90;;
26578;SDS011;14227;47.674;19.320;2023-07-09T07:15:56;5.88;;;2.92;;
26578;SDS011;14227;47.674;19.320;2023-07-09T07:18:22;4.47;;;3.17;;
26578;SDS011;14227;47.674;19.320;2023-07-09T07:20:48;5.28;;;3.08;;
26578;SDS011;14227;47.674;19.320;2023-07-09T07:23:16;6.88;;;2.92;;
26578;SDS011;14227;47.674;19.320;2023-07-09T07:25:42;7.78;;;2.95;;
26578;SDS011;14227;47.674;19.320;2023-07-09T07:28:09;8.43;;;3.33;;
26578;SDS011;14227;47.674;19.320;2023-07-09T07:30:35;6.47;;;3.10;;
26578;SDS011;14227;47.674;19.320;2023-07-09T07:33:03;7.85;;;3.38;;
26578;SDS011;14227;47.674;19.320;2023-07-09T07:35:31;7.55;;;3.22;;
26578;SDS011;14227;47.674;19.320;2023-07-09T07:37:57;8.82;;;3.05;;
26578;SDS011;14227;47.674;19.320;2023-07-09T07:40:23;3.92;;;2.80;;
26578;SDS011;14227;47.674;19.320;2023-07-09T07:45:35;8.95;;;3.17;;
26578;SDS011;14227;47.674;19.320;2023-07-09T07:48:01;4.35;;;2.65;;
26578;SDS011;14227;47.674;19.320;2023-07-09T07:50:26;4.72;;;2.90;;
26578;SDS011;14227;47.674;19.320;2023-07-09T07:52:52;9.13;;;3.13;;
26578;SDS011;14227;47.674;19.320;2023-07-09T07:58:33;5.50;;;2.72;;
26578;SDS011;14227;47.674;19.320;2023-07-09T08:00:59;5.07;;;2.75;;
26578;SDS011;14227;47.674;19.320;2023-07-09T08:03:25;5.25;;;2.60;;
26578;SDS011;14227;47.674;19.320;2023-07-09T08:05:51;10.15;;;2.85;;
26578;SDS011;14227;47.674;19.320;2023-07-09T08:08:17;8.63;;;2.80;;
26578;SDS011;14227;47.674;19.320;2023-07-09T08:10:43;4.55;;;3.00;;
26578;SDS011;14227;47.674;19.320;2023-07-09T08:13:09;8.00;;;2.97;;
26578;SDS011;14227;47.674;19.320;2023-07-09T08:15:35;4.35;;;2.60;;
26578;SDS011;14227;47.674;19.320;2023-07-09T08:18:00;5.30;;;2.60;;
26578;SDS011;14227;47.674;19.320;2023-07-09T08:20:26;7.63;;;2.70;;
26578;SDS011;14227;47.674;19.320;2023-07-09T08:22:52;6.38;;;2.55;;
26578;SDS011;14227;47.674;19.320;2023-07-09T08:25:18;5.30;;;2.83;;
26578;SDS011;14227;47.674;19.320;2023-07-09T08:27:43;5.40;;;3.10;;
26578;SDS011;14227;47.674;19.320;2023-07-09T08:30:10;9.82;;;2.70;;
26578;SDS011;14227;47.674;19.320;2023-07-09T08:32:36;6.75;;;2.58;;
26578;SDS011;14227;47.674;19.320;2023-07-09T08:35:02;2.47;;;2.28;;
26578;SDS011;14227;47.674;19.320;2023-07-09T08:37:27;6.30;;;2.70;;
26578;SDS011;14227;47.674;19.320;2023-07-09T08:39:53;4.68;;;2.63;;
26578;SDS011;14227;47.674;19.320;2023-07-09T08:42:33;3.35;;;2.45;;
26578;SDS011;14227;47.674;19.320;2023-07-09T08:48:09;11.48;;;2.80;;
26578;SDS011;14227;47.674;19.320;2023-07-09T08:50:42;4.95;;;2.60;;
26578;SDS011;14227;47.674;19.320;2023-07-09T08:53:34;3.97;;;2.45;;
26578;SDS011;14227;47.674;19.320;2023-07-09T08:56:03;6.13;;;2.55;;
26578;SDS011;14227;47.674;19.320;2023-07-09T08:58:29;5.57;;;2.13;;
26578;SDS011;14227;47.674;19.320;2023-07-09T09:01:03;7.22;;;2.45;;
26578;SDS011;14227;47.674;19.320;2023-07-09T09:06:00;4.43;;;2.50;;
26578;SDS011;14227;47.674;19.320;2023-07-09T09:13:46;5.50;;;2.17;;
26578;SDS011;14227;47.674;19.320;2023-07-09T09:16:35;8.25;;;3.00;;
26578;SDS011;14227;47.674;19.320;2023-07-09T09:19:03;17.75;;;2.63;;
26578;SDS011;14227;47.674;19.320;2023-07-09T09:21:47;12.75;;;2.35;;
26578;SDS011;14227;47.674;19.320;2023-07-09T09:24:19;2.20;;;2.00;;
26578;SDS011;14227;47.674;19.320;2023-07-09T09:27:07;4.05;;;1.80;;
26578;SDS011;14227;47.674;19.320;2023-07-09T09:29:33;3.75;;;2.05;;
26578;SDS011;14227;47.674;19.320;2023-07-09T09:31:59;3.28;;;1.77;;
26578;SDS011;14227;47.674;19.320;2023-07-09T09:34:42;2.60;;;1.90;;
26578;SDS011;14227;47.674;19.320;2023-07-09T09:37:11;7.03;;;2.20;;
26578;SDS011;14227;47.674;19.320;2023-07-09T09:39:38;4.32;;;2.15;;
26578;SDS011;14227;47.674;19.320;2023-07-09T09:42:07;6.05;;;2.22;;
26578;SDS011;14227;47.674;19.320;2023-07-09T09:44:35;5.22;;;1.95;;
26578;SDS011;14227;47.674;19.320;2023-07-09T09:47:01;3.60;;;1.80;;
26578;SDS011;14227;47.674;19.320;2023-07-09T09:49:28;4.60;;;2.00;;
26578;SDS011;14227;47.674;19.320;2023-07-09T09:51:54;3.83;;;1.98;;
26578;SDS011;14227;47.674;19.320;2023-07-09T09:54:27;3.92;;;2.28;;
26578;SDS011;14227;47.674;19.320;2023-07-09T09:56:55;9.77;;;2.10;;
26578;SDS011;14227;47.674;19.320;2023-07-09T09:59:25;4.05;;;1.92;;
26578;SDS011;14227;47.674;19.320;2023-07-09T10:02:18;5.45;;;2.13;;
26578;SDS011;14227;47.674;19.320;2023-07-09T10:04:45;5.30;;;2.00;;
26578;SDS011;14227;47.674;19.320;2023-07-09T10:07:22;4.30;;;2.08;;
26578;SDS011;14227;47.674;19.320;2023-07-09T10:09:50;6.90;;;2.20;;
26578;SDS011;14227;47.674;19.320;2023-07-09T10:12:38;4.45;;;1.90;;
26578;SDS011;14227;47.674;19.320;2023-07-09T10:15:18;3.40;;;2.08;;
26578;SDS011;14227;47.674;19.320;2023-07-09T10:18:02;1.83;;;1.65;;
26578;SDS011;14227;47.674;19.320;2023-07-09T10:25:55;3.13;;;2.30;;
26578;SDS011;14227;47.674;19.320;2023-07-09T10:34:34;24.02;;;2.75;;
26578;SDS011;14227;47.674;19.320;2023-07-09T10:37:40;6.18;;;1.98;;
26578;SDS011;14227;47.674;19.320;2023-07-09T10:40:27;4.43;;;1.90;;
26578;SDS011;14227;47.674;19.320;2023-07-09T10:43:29;2.88;;;2.10;;
26578;SDS011;14227;47.674;19.320;2023-07-09T10:45:58;4.50;;;2.03;;
26578;SDS011;14227;47.674;19.320;2023-07-09T10:48:36;5.10;;;2.30;;
26578;SDS011;14227;47.674;19.320;2023-07-09T10:51:04;3.15;;;2.00;;
26578;SDS011;14227;47.674;19.320;2023-07-09T10:53:55;2.47;;;1.88;;
26578;SDS011;14227;47.674;19.320;2023-07-09T10:56:29;5.95;;;2.22;;
26578;SDS011;14227;47.674;19.320;2023-07-09T11:01:58;3.42;;;1.98;;
26578;SDS011;14227;47.674;19.320;2023-07-09T11:04:43;3.65;;;2.28;;
26578;SDS011;14227;47.674;19.320;2023-07-09T11:10:19;4.78;;;1.98;;
26578;SDS011;14227;47.674;19.320;2023-07-09T11:12:59;7.50;;;2.10;;
26578;SDS011;14227;47.674;19.320;2023-07-09T11:15:35;3.47;;;1.90;;
26578;SDS011;14227;47.674;19.320;2023-07-09T11:18:05;4.00;;;2.10;;
26578;SDS011;14227;47.674;19.320;2023-07-09T11:20:33;3.60;;;2.25;;
26578;SDS011;14227;47.674;19.320;2023-07-09T11:23:02;5.68;;;2.38;;
26578;SDS011;14227;47.674;19.320;2023-07-09T11:25:40;6.63;;;2.58;;
26578;SDS011;14227;47.674;19.320;2023-07-09T11:28:06;4.10;;;2.20;;
26578;SDS011;14227;47.674;19.320;2023-07-09T11:30:44;2.88;;;2.13;;
26578;SDS011;14227;47.674;19.320;2023-07-09T11:33:15;7.10;;;2.40;;
26578;SDS011;14227;47.674;19.320;2023-07-09T11:38:24;6.75;;;2.13;;
26578;SDS011;14227;47.674;19.320;2023-07-09T11:40:51;2.65;;;2.00;;
26578;SDS011;14227;47.674;19.320;2023-07-09T11:43:28;2.85;;;2.17;;
26578;SDS011;14227;47.674;19.320;2023-07-09T11:46:03;2.60;;;2.00;;
26578;SDS011;14227;47.674;19.320;2023-07-09T11:48:36;3.33;;;2.03;;
26578;SDS011;14227;47.674;19.320;2023-07-09T11:51:08;4.25;;;2.28;;
26578;SDS011;14227;47.674;19.320;2023-07-09T11:53:49;4.43;;;2.22;;
26578;SDS011;14227;47.674;19.320;2023-07-09T11:56:18;2.15;;;1.95;;
26578;SDS011;14227;47.674;19.320;2023-07-09T11:58:52;6.07;;;2.20;;
26578;SDS011;14227;47.674;19.320;2023-07-09T12:01:28;6.32;;;2.22;;
26578;SDS011;14227;47.674;19.320;2023-07-09T12:04:12;4.70;;;2.28;;
26578;SDS011;14227;47.674;19.320;2023-07-09T12:06:39;3.38;;;2.08;;
26578;SDS011;14227;47.674;19.320;2023-07-09T12:09:06;2.53;;;2.00;;
26578;SDS011;14227;47.674;19.320;2023-07-09T12:11:34;3.28;;;2.13;;
26578;SDS011;14227;47.674;19.320;2023-07-09T12:14:01;3.00;;;2.00;;
26578;SDS011;14227;47.674;19.320;2023-07-09T12:16:35;3.80;;;2.35;;
26578;SDS011;14227;47.674;19.320;2023-07-09T12:19:02;4.65;;;2.20;;
26578;SDS011;14227;47.674;19.320;2023-07-09T12:21:29;2.38;;;2.08;;
26578;SDS011;14227;47.674;19.320;2023-07-09T12:23:56;4.05;;;2.10;;
26578;SDS011;14227;47.674;19.320;2023-07-09T12:26:22;4.95;;;2.42;;
26578;SDS011;14227;47.674;19.320;2023-07-09T12:28:51;3.17;;;2.17;;
26578;SDS011;14227;47.674;19.320;2023-07-09T12:31:20;5.75;;;2.53;;
26578;SDS011;14227;47.674;19.320;2023-07-09T12:33:56;2.40;;;2.08;;
26578;SDS011;14227;47.674;19.320;2023-07-09T12:36:26;4.82;;;2.25;;
26578;SDS011;14227;47.674;19.320;2023-07-09T12:38:54;4.22;;;2.00;;
26578;SDS011;14227;47.674;19.320;2023-07-09T12:41:24;4.15;;;2.05;;
26578;SDS011;14227;47.674;19.320;2023-07-09T12:44:17;4.18;;;2.30;;
26578;SDS011;14227;47.674;19.320;2023-07-09T12:46:46;5.97;;;2.38;;
26578;SDS011;14227;47.674;19.320;2023-07-09T12:49:18;3.25;;;2.40;;
26578;SDS011;14227;47.674;19.320;2023-07-09T12:51:47;3.08;;;2.45;;
26578;SDS011;14227;47.674;19.320;2023-07-09T12:54:15;4.57;;;1.90;;
26578;SDS011;14227;47.674;19.320;2023-07-09T12:56:46;6.78;;;2.05;;
26578;SDS011;14227;47.674;19.320;2023-07-09T12:59:23;4.05;;;1.98;;
26578;SDS011;14227;47.674;19.320;2023-07-09T13:01:54;4.65;;;2.53;;
26578;SDS011;14227;47.674;19.320;2023-07-09T13:04:27;2.53;;;2.20;;
26578;SDS011;14227;47.674;19.320;2023-07-09T13:06:54;3.95;;;2.20;;
26578;SDS011;14227;47.674;19.320;2023-07-09T13:09:24;3.30;;;2.38;;
26578;SDS011;14227;47.674;19.320;2023-07-09T13:11:51;7.28;;;2.08;;
26578;SDS011;14227;47.674;19.320;2023-07-09T13:14:20;5.45;;;2.33;;
26578;SDS011;14227;47.674;19.320;2023-07-09T13:16:48;7.95;;;2.22;;
26578;SDS011;14227;47.674;19.320;2023-07-09T13:19:15;2.22;;;2.03;;
26578;SDS011;14227;47.674;19.320;2023-07-09T13:21:42;6.78;;;2.70;;
26578;SDS011;14227;47.674;19.320;2023-07-09T13:24:15;5.35;;;2.08;;
26578;SDS011;14227;47.674;19.320;2023-07-09T13:26:48;16.30;;;3.35;;
26578;SDS011;14227;47.674;19.320;2023-07-09T13:29:15;4.85;;;2.60;;
26578;SDS011;14227;47.674;19.320;2023-07-09T13:31:47;4.40;;;2.30;;
26578;SDS011;14227;47.674;19.320;2023-07-09T13:34:26;6.75;;;2.00;;
26578;SDS011;14227;47.674;19.320;2023-07-09T13:36:58;7.40;;;2.33;;
26578;SDS011;14227;47.674;19.320;2023-07-09T13:39:24;2.50;;;2.13;;
26578;SDS011;14227;47.674;19.320;2023-07-09T13:41:50;7.95;;;2.25;;
26578;SDS011;14227;47.674;19.320;2023-07-09T13:44:38;2.50;;;2.22;;
26578;SDS011;14227;47.674;19.320;2023-07-09T13:47:04;4.35;;;2.08;;
26578;SDS011;14227;47.674;19.320;2023-07-09T13:49:31;3.58;;;2.17;;
26578;SDS011;14227;47.674;19.320;2023-07-09T13:51:58;2.30;;;2.08;;
26578;SDS011;14227;47.674;19.320;2023-07-09T13:54:26;3.88;;;2.15;;
26578;SDS011;14227;47.674;19.320;2023-07-09T13:57:00;5.25;;;2.40;;
26578;SDS011;14227;47.674;19.320;2023-07-09T13:59:28;2.42;;;2.22;;
26578;SDS011;14227;47.674;19.320;2023-07-09T14:01:55;4.00;;;2.10;;
26578;SDS011;14227;47.674;19.320;2023-07-09T14:04:23;4.00;;;2.17;;
26578;SDS011;14227;47.674;19.320;2023-07-09T14:06:50;4.43;;;2.33;;
26578;SDS011;14227;47.674;19.320;2023-07-09T14:09:16;4.18;;;2.20;;
26578;SDS011;14227;47.674;19.320;2023-07-09T14:11:45;10.10;;;2.47;;
26578;SDS011;14227;47.674;19.320;2023-07-09T14:14:25;5.07;;;2.22;;
26578;SDS011;14227;47.674;19.320;2023-07-09T14:16:56;10.80;;;2.38;;
26578;SDS011;14227;47.674;19.320;2023-07-09T14:19:23;10.00;;;2.50;;
26578;SDS011;14227;47.674;19.320;2023-07-09T14:21:49;5.30;;;2.20;;
26578;SDS011;14227;47.674;19.320;2023-07-09T14:24:20;6.28;;;3.00;;
26578;SDS011;14227;47.674;19.320;2023-07-09T14:26:48;7.13;;;2.50;;
26578;SDS011;14227;47.674;19.320;2023-07-09T14:29:15;4.50;;;2.10;;
26578;SDS011;14227;47.674;19.320;2023-07-09T14:31:41;8.02;;;2.65;;
26578;SDS011;14227;47.674;19.320;2023-07-09T14:34:20;6.53;;;2.35;;
26578;SDS011;14227;47.674;19.320;2023-07-09T14:36:51;7.20;;;2.53;;
26578;SDS011;14227;47.674;19.320;2023-07-09T14:39:18;4.75;;;2.17;;
26578;SDS011;14227;47.674;19.320;2023-07-09T14:41:44;2.83;;;2.42;;
26578;SDS011;14227;47.674;19.320;2023-07-09T14:46:49;4.53;;;2.88;;
26578;SDS011;14227;47.674;19.320;2023-07-09T14:49:33;5.18;;;2.83;;
26578;SDS011;14227;47.674;19.320;2023-07-09T14:51:59;5.07;;;3.00;;
26578;SDS011;14227;47.674;19.320;2023-07-09T14:54:26;2.45;;;2.13;;
26578;SDS011;14227;47.674;19.320;2023-07-09T14:56:54;4.65;;;2.80;;
26578;SDS011;14227;47.674;19.320;2023-07-09T14:59:22;5.88;;;2.60;;
26578;SDS011;14227;47.674;19.320;2023-07-09T15:01:48;4.70;;;2.55;;
26578;SDS011;14227;47.674;19.320;2023-07-09T15:06:49;5.22;;;2.63;;
26578;SDS011;14227;47.674;19.320;2023-07-09T15:09:19;5.10;;;3.28;;
26578;SDS011;14227;47.674;19.320;2023-07-09T15:11:52;5.47;;;2.55;;
26578;SDS011;14227;47.674;19.320;2023-07-09T15:14:23;4.40;;;3.25;;
26578;SDS011;14227;47.674;19.320;2023-07-09T15:16:51;4.82;;;2.75;;
26578;SDS011;14227;47.674;19.320;2023-07-09T15:19:17;4.70;;;2.50;;
26578;SDS011;14227;47.674;19.320;2023-07-09T15:21:45;27.48;;;9.90;;
26578;SDS011;14227;47.674;19.320;2023-07-09T15:26:50;7.85;;;3.97;;
26578;SDS011;14227;47.674;19.320;2023-07-09T15:29:18;6.33;;;3.33;;